sensor_id;sensor_type;location;lat;lon;timestamp;P1;durP1;ratioP1;P2;durP2;ratioP2
78891;SDS011;68368;51.728;5.248;2023-09-18T00:00:30;17.70;;;13.30;;
78891;SDS011;68368;51.728;5.248;2023-09-18T00:02:32;15.00;;;12.30;;
78891;SDS011;68368;51.728;5.248;2023-09-18T00:04:34;16.10;;;13.40;;
78891;SDS011;68368;51.728;5.248;2023-09-18T00:06:35;19.50;;;14.10;;
78891;SDS011;68368;51.728;5.248;2023-09-18T00:08:38;16.70;;;13.80;;
78891;SDS011;68368;51.728;5.248;2023-09-18T00:10:40;19.00;;;14.30;;
78891;SDS011;68368;51.728;5.248;2023-09-18T00:12:43;17.00;;;14.60;;
78891;SDS011;68368;51.728;5.248;2023-09-18T00:14:47;19.20;;;14.80;;
78891;SDS011;68368;51.728;5.248;2023-09-18T00:16:49;17.80;;;14.30;;
78891;SDS011;68368;51.728;5.248;2023-09-18T00:18:51;21.20;;;15.30;;
78891;SDS011;68368;51.728;5.248;2023-09-18T00:20:56;18.90;;;14.20;;
78891;SDS011;68368;51.728;5.248;2023-09-18T00:22:58;18.50;;;13.50;;
78891;SDS011;68368;51.728;5.248;2023-09-18T00:25:03;16.00;;;13.00;;
78891;SDS011;68368;51.728;5.248;2023-09-18T00:27:05;17.50;;;14.00;;
78891;SDS011;68368;51.728;5.248;2023-09-18T00:29:07;17.70;;;13.90;;
78891;SDS011;68368;51.728;5.248;2023-09-18T00:31:09;19.20;;;13.00;;
78891;SDS011;68368;51.728;5.248;2023-09-18T00:33:11;15.30;;;12.40;;
78891;SDS011;68368;51.728;5.248;2023-09-18T00:35:12;15.00;;;12.20;;
78891;SDS011;68368;51.728;5.248;2023-09-18T00:37:14;17.60;;;13.00;;
78891;SDS011;68368;51.728;5.248;2023-09-18T00:39:16;16.60;;;12.60;;
78891;SDS011;68368;51.728;5.248;2023-09-18T00:41:18;17.10;;;12.10;;
78891;SDS011;68368;51.728;5.248;2023-09-18T00:43:20;15.20;;;11.60;;
78891;SDS011;68368;51.728;5.248;2023-09-18T00:45:22;13.40;;;11.30;;
78891;SDS011;68368;51.728;5.248;2023-09-18T00:47:24;18.10;;;12.80;;
78891;SDS011;68368;51.728;5.248;2023-09-18T00:49:26;15.80;;;11.50;;
78891;SDS011;68368;51.728;5.248;2023-09-18T00:51:28;15.20;;;11.30;;
78891;SDS011;68368;51.728;5.248;2023-09-18T00:53:30;17.00;;;12.90;;
78891;SDS011;68368;51.728;5.248;2023-09-18T00:55:33;14.70;;;11.90;;
78891;SDS011;68368;51.728;5.248;2023-09-18T00:57:37;17.40;;;12.00;;
78891;SDS011;68368;51.728;5.248;2023-09-18T00:59:39;16.20;;;11.50;;
78891;SDS011;68368;51.728;5.248;2023-09-18T01:01:42;18.10;;;11.60;;
78891;SDS011;68368;51.728;5.248;2023-09-18T01:03:45;18.40;;;11.80;;
78891;SDS011;68368;51.728;5.248;2023-09-18T01:05:47;16.70;;;12.10;;
78891;SDS011;68368;51.728;5.248;2023-09-18T01:07:48;15.80;;;12.30;;
78891;SDS011;68368;51.728;5.248;2023-09-18T01:09:51;17.10;;;11.30;;
78891;SDS011;68368;51.728;5.248;2023-09-18T01:11:54;16.40;;;12.20;;
78891;SDS011;68368;51.728;5.248;2023-09-18T01:14:03;15.10;;;10.90;;
78891;SDS011;68368;51.728;5.248;2023-09-18T01:16:13;14.20;;;11.10;;
78891;SDS011;68368;51.728;5.248;2023-09-18T01:18:21;14.60;;;11.80;;
78891;SDS011;68368;51.728;5.248;2023-09-18T01:20:23;14.10;;;11.00;;
78891;SDS011;68368;51.728;5.248;2023-09-18T01:22:24;12.50;;;11.50;;
78891;SDS011;68368;51.728;5.248;2023-09-18T01:24:31;14.10;;;10.30;;
78891;SDS011;68368;51.728;5.248;2023-09-18T01:26:34;15.10;;;10.90;;
78891;SDS011;68368;51.728;5.248;2023-09-18T01:28:36;17.40;;;12.30;;
78891;SDS011;68368;51.728;5.248;2023-09-18T01:30:37;13.40;;;11.20;;
78891;SDS011;68368;51.728;5.248;2023-09-18T01:32:42;17.10;;;11.50;;
78891;SDS011;68368;51.728;5.248;2023-09-18T01:34:46;13.70;;;11.00;;
78891;SDS011;68368;51.728;5.248;2023-09-18T01:36:49;14.30;;;9.80;;
78891;SDS011;68368;51.728;5.248;2023-09-18T01:38:52;16.70;;;12.70;;
78891;SDS011;68368;51.728;5.248;2023-09-18T01:40:54;14.90;;;10.90;;
78891;SDS011;68368;51.728;5.248;2023-09-18T01:42:56;13.30;;;10.30;;
78891;SDS011;68368;51.728;5.248;2023-09-18T01:45:00;14.30;;;10.60;;
78891;SDS011;68368;51.728;5.248;2023-09-18T01:47:03;14.10;;;10.20;;
78891;SDS011;68368;51.728;5.248;2023-09-18T01:49:08;15.70;;;9.90;;
78891;SDS011;68368;51.728;5.248;2023-09-18T01:51:10;12.70;;;10.30;;
78891;SDS011;68368;51.728;5.248;2023-09-18T01:53:14;13.70;;;9.60;;
78891;SDS011;68368;51.728;5.248;2023-09-18T01:55:17;14.30;;;10.00;;
78891;SDS011;68368;51.728;5.248;2023-09-18T01:57:19;12.70;;;9.80;;
78891;SDS011;68368;51.728;5.248;2023-09-18T01:59:21;12.90;;;9.30;;
78891;SDS011;68368;51.728;5.248;2023-09-18T02:01:23;15.00;;;9.70;;
78891;SDS011;68368;51.728;5.248;2023-09-18T02:03:27;13.20;;;8.70;;
78891;SDS011;68368;51.728;5.248;2023-09-18T02:05:29;12.70;;;9.40;;
78891;SDS011;68368;51.728;5.248;2023-09-18T02:07:32;15.30;;;10.30;;
78891;SDS011;68368;51.728;5.248;2023-09-18T02:09:33;12.60;;;9.30;;
78891;SDS011;68368;51.728;5.248;2023-09-18T02:11:36;11.10;;;8.00;;
78891;SDS011;68368;51.728;5.248;2023-09-18T02:13:38;11.60;;;9.00;;
78891;SDS011;68368;51.728;5.248;2023-09-18T02:15:40;11.90;;;8.10;;
78891;SDS011;68368;51.728;5.248;2023-09-18T02:17:44;12.80;;;7.70;;
78891;SDS011;68368;51.728;5.248;2023-09-18T02:19:45;11.10;;;8.40;;
78891;SDS011;68368;51.728;5.248;2023-09-18T02:21:47;11.30;;;7.90;;
78891;SDS011;68368;51.728;5.248;2023-09-18T02:23:49;11.60;;;8.00;;
78891;SDS011;68368;51.728;5.248;2023-09-18T02:25:55;12.30;;;8.40;;
78891;SDS011;68368;51.728;5.248;2023-09-18T02:27:58;12.20;;;7.90;;
78891;SDS011;68368;51.728;5.248;2023-09-18T02:30:00;10.20;;;7.90;;
78891;SDS011;68368;51.728;5.248;2023-09-18T02:32:01;11.90;;;8.40;;
78891;SDS011;68368;51.728;5.248;2023-09-18T02:34:04;14.00;;;9.00;;
78891;SDS011;68368;51.728;5.248;2023-09-18T02:36:06;12.30;;;8.30;;
78891;SDS011;68368;51.728;5.248;2023-09-18T02:38:07;12.30;;;8.30;;
78891;SDS011;68368;51.728;5.248;2023-09-18T02:40:10;15.80;;;9.00;;
78891;SDS011;68368;51.728;5.248;2023-09-18T02:42:12;10.70;;;7.00;;
78891;SDS011;68368;51.728;5.248;2023-09-18T02:44:14;10.10;;;7.20;;
78891;SDS011;68368;51.728;5.248;2023-09-18T02:46:16;11.10;;;8.30;;
78891;SDS011;68368;51.728;5.248;2023-09-18T02:48:18;11.40;;;7.90;;
78891;SDS011;68368;51.728;5.248;2023-09-18T02:50:19;9.20;;;7.60;;
78891;SDS011;68368;51.728;5.248;2023-09-18T02:52:22;11.10;;;7.30;;
78891;SDS011;68368;51.728;5.248;2023-09-18T02:54:23;9.70;;;6.90;;
78891;SDS011;68368;51.728;5.248;2023-09-18T02:56:27;10.30;;;7.60;;
78891;SDS011;68368;51.728;5.248;2023-09-18T02:58:29;10.50;;;7.10;;
78891;SDS011;68368;51.728;5.248;2023-09-18T03:00:32;13.80;;;7.60;;
78891;SDS011;68368;51.728;5.248;2023-09-18T03:02:34;11.40;;;7.20;;
78891;SDS011;68368;51.728;5.248;2023-09-18T03:04:35;10.10;;;7.40;;
78891;SDS011;68368;51.728;5.248;2023-09-18T03:06:38;10.20;;;6.30;;
78891;SDS011;68368;51.728;5.248;2023-09-18T03:08:40;9.10;;;6.90;;
78891;SDS011;68368;51.728;5.248;2023-09-18T03:10:42;10.40;;;6.70;;
78891;SDS011;68368;51.728;5.248;2023-09-18T03:12:48;12.80;;;7.30;;
78891;SDS011;68368;51.728;5.248;2023-09-18T03:14:50;9.30;;;6.70;;
78891;SDS011;68368;51.728;5.248;2023-09-18T03:16:52;8.30;;;6.70;;
78891;SDS011;68368;51.728;5.248;2023-09-18T03:18:54;9.50;;;6.40;;
78891;SDS011;68368;51.728;5.248;2023-09-18T03:20:55;9.30;;;6.40;;
78891;SDS011;68368;51.728;5.248;2023-09-18T03:23:01;11.70;;;6.90;;
78891;SDS011;68368;51.728;5.248;2023-09-18T03:25:04;10.60;;;6.60;;
78891;SDS011;68368;51.728;5.248;2023-09-18T03:27:07;10.00;;;6.70;;
78891;SDS011;68368;51.728;5.248;2023-09-18T03:29:09;9.60;;;6.70;;
78891;SDS011;68368;51.728;5.248;2023-09-18T03:31:11;9.00;;;6.40;;
78891;SDS011;68368;51.728;5.248;2023-09-18T03:33:13;10.40;;;6.40;;
78891;SDS011;68368;51.728;5.248;2023-09-18T03:35:16;12.50;;;6.20;;
78891;SDS011;68368;51.728;5.248;2023-09-18T03:37:18;10.30;;;6.20;;
78891;SDS011;68368;51.728;5.248;2023-09-18T03:39:20;11.00;;;6.90;;
78891;SDS011;68368;51.728;5.248;2023-09-18T03:41:22;10.40;;;7.40;;
78891;SDS011;68368;51.728;5.248;2023-09-18T03:43:24;11.60;;;7.20;;
78891;SDS011;68368;51.728;5.248;2023-09-18T03:45:26;10.70;;;6.70;;
78891;SDS011;68368;51.728;5.248;2023-09-18T03:47:28;8.70;;;6.40;;
78891;SDS011;68368;51.728;5.248;2023-09-18T03:49:32;9.30;;;6.20;;
78891;SDS011;68368;51.728;5.248;2023-09-18T03:51:34;11.40;;;6.80;;
78891;SDS011;68368;51.728;5.248;2023-09-18T03:53:36;7.90;;;5.30;;
78891;SDS011;68368;51.728;5.248;2023-09-18T03:55:38;11.20;;;6.90;;
78891;SDS011;68368;51.728;5.248;2023-09-18T03:57:41;10.20;;;7.20;;
78891;SDS011;68368;51.728;5.248;2023-09-18T03:59:43;9.40;;;6.80;;
78891;SDS011;68368;51.728;5.248;2023-09-18T04:01:45;11.20;;;7.50;;
78891;SDS011;68368;51.728;5.248;2023-09-18T04:03:47;8.80;;;6.70;;
78891;SDS011;68368;51.728;5.248;2023-09-18T04:05:48;12.00;;;7.50;;
78891;SDS011;68368;51.728;5.248;2023-09-18T04:07:50;11.60;;;7.00;;
78891;SDS011;68368;51.728;5.248;2023-09-18T04:09:55;10.90;;;6.60;;
78891;SDS011;68368;51.728;5.248;2023-09-18T04:11:56;10.70;;;6.90;;
78891;SDS011;68368;51.728;5.248;2023-09-18T04:13:58;13.20;;;7.90;;
78891;SDS011;68368;51.728;5.248;2023-09-18T04:16:00;9.90;;;6.80;;
78891;SDS011;68368;51.728;5.248;2023-09-18T04:18:02;10.40;;;6.60;;
78891;SDS011;68368;51.728;5.248;2023-09-18T04:20:05;12.10;;;7.30;;
78891;SDS011;68368;51.728;5.248;2023-09-18T04:22:10;11.90;;;7.40;;
78891;SDS011;68368;51.728;5.248;2023-09-18T04:24:12;8.40;;;6.10;;
78891;SDS011;68368;51.728;5.248;2023-09-18T04:26:14;10.80;;;7.10;;
78891;SDS011;68368;51.728;5.248;2023-09-18T04:28:17;11.80;;;6.70;;
78891;SDS011;68368;51.728;5.248;2023-09-18T04:30:20;11.00;;;7.00;;
78891;SDS011;68368;51.728;5.248;2023-09-18T04:32:25;11.20;;;6.90;;
78891;SDS011;68368;51.728;5.248;2023-09-18T04:34:27;9.70;;;6.50;;
78891;SDS011;68368;51.728;5.248;2023-09-18T04:36:29;12.40;;;6.60;;
78891;SDS011;68368;51.728;5.248;2023-09-18T04:38:31;12.20;;;6.60;;
78891;SDS011;68368;51.728;5.248;2023-09-18T04:40:33;11.30;;;6.30;;
78891;SDS011;68368;51.728;5.248;2023-09-18T04:42:35;15.30;;;7.10;;
78891;SDS011;68368;51.728;5.248;2023-09-18T04:44:36;10.80;;;6.40;;
78891;SDS011;68368;51.728;5.248;2023-09-18T04:46:38;13.60;;;7.50;;
78891;SDS011;68368;51.728;5.248;2023-09-18T04:48:40;9.90;;;7.20;;
78891;SDS011;68368;51.728;5.248;2023-09-18T04:50:42;12.20;;;6.70;;
78891;SDS011;68368;51.728;5.248;2023-09-18T04:52:44;11.70;;;7.70;;
78891;SDS011;68368;51.728;5.248;2023-09-18T04:54:46;13.40;;;7.80;;
78891;SDS011;68368;51.728;5.248;2023-09-18T04:56:48;14.10;;;7.20;;
78891;SDS011;68368;51.728;5.248;2023-09-18T04:58:50;10.90;;;7.30;;
78891;SDS011;68368;51.728;5.248;2023-09-18T05:00:55;12.10;;;7.60;;
78891;SDS011;68368;51.728;5.248;2023-09-18T05:02:57;14.30;;;7.80;;
78891;SDS011;68368;51.728;5.248;2023-09-18T05:05:01;12.00;;;7.60;;
78891;SDS011;68368;51.728;5.248;2023-09-18T05:07:05;11.20;;;7.10;;
78891;SDS011;68368;51.728;5.248;2023-09-18T05:09:07;10.90;;;6.70;;
78891;SDS011;68368;51.728;5.248;2023-09-18T05:11:08;10.60;;;7.30;;
78891;SDS011;68368;51.728;5.248;2023-09-18T05:13:11;12.60;;;7.50;;
78891;SDS011;68368;51.728;5.248;2023-09-18T05:15:13;10.60;;;7.80;;
78891;SDS011;68368;51.728;5.248;2023-09-18T05:17:16;13.00;;;7.10;;
78891;SDS011;68368;51.728;5.248;2023-09-18T05:19:18;10.50;;;7.50;;
78891;SDS011;68368;51.728;5.248;2023-09-18T05:21:20;13.30;;;7.50;;
78891;SDS011;68368;51.728;5.248;2023-09-18T05:23:22;11.50;;;7.00;;
78891;SDS011;68368;51.728;5.248;2023-09-18T05:25:24;12.30;;;7.90;;
78891;SDS011;68368;51.728;5.248;2023-09-18T05:27:27;13.00;;;7.30;;
78891;SDS011;68368;51.728;5.248;2023-09-18T05:29:29;11.80;;;7.40;;
78891;SDS011;68368;51.728;5.248;2023-09-18T05:31:31;9.30;;;6.50;;
78891;SDS011;68368;51.728;5.248;2023-09-18T05:33:33;12.90;;;7.20;;
78891;SDS011;68368;51.728;5.248;2023-09-18T05:35:35;9.50;;;6.70;;
78891;SDS011;68368;51.728;5.248;2023-09-18T05:37:41;11.40;;;6.80;;
78891;SDS011;68368;51.728;5.248;2023-09-18T05:39:43;11.70;;;6.90;;
78891;SDS011;68368;51.728;5.248;2023-09-18T05:41:45;12.00;;;6.80;;
78891;SDS011;68368;51.728;5.248;2023-09-18T05:43:47;9.50;;;7.00;;
78891;SDS011;68368;51.728;5.248;2023-09-18T05:45:49;9.80;;;6.70;;
78891;SDS011;68368;51.728;5.248;2023-09-18T05:47:51;7.50;;;6.10;;
78891;SDS011;68368;51.728;5.248;2023-09-18T05:49:54;11.10;;;6.60;;
78891;SDS011;68368;51.728;5.248;2023-09-18T05:51:56;9.40;;;6.50;;
78891;SDS011;68368;51.728;5.248;2023-09-18T05:53:57;7.40;;;5.50;;
78891;SDS011;68368;51.728;5.248;2023-09-18T05:56:01;7.70;;;5.20;;
78891;SDS011;68368;51.728;5.248;2023-09-18T05:58:03;8.80;;;5.60;;
78891;SDS011;68368;51.728;5.248;2023-09-18T06:00:06;7.30;;;5.40;;
78891;SDS011;68368;51.728;5.248;2023-09-18T06:02:09;8.60;;;5.70;;
78891;SDS011;68368;51.728;5.248;2023-09-18T06:04:11;8.50;;;5.10;;
78891;SDS011;68368;51.728;5.248;2023-09-18T06:06:13;9.70;;;4.90;;
78891;SDS011;68368;51.728;5.248;2023-09-18T06:08:15;7.80;;;4.70;;
78891;SDS011;68368;51.728;5.248;2023-09-18T06:10:20;6.70;;;4.20;;
78891;SDS011;68368;51.728;5.248;2023-09-18T06:12:21;8.40;;;4.60;;
78891;SDS011;68368;51.728;5.248;2023-09-18T06:14:24;6.50;;;4.30;;
78891;SDS011;68368;51.728;5.248;2023-09-18T06:16:26;7.70;;;4.40;;
78891;SDS011;68368;51.728;5.248;2023-09-18T06:18:28;7.40;;;4.40;;
78891;SDS011;68368;51.728;5.248;2023-09-18T06:20:29;8.50;;;5.00;;
78891;SDS011;68368;51.728;5.248;2023-09-18T06:22:31;6.90;;;4.50;;
78891;SDS011;68368;51.728;5.248;2023-09-18T06:24:33;6.80;;;4.60;;
78891;SDS011;68368;51.728;5.248;2023-09-18T06:26:35;8.10;;;4.50;;
78891;SDS011;68368;51.728;5.248;2023-09-18T06:28:37;6.10;;;4.30;;
78891;SDS011;68368;51.728;5.248;2023-09-18T06:30:39;5.00;;;3.60;;
78891;SDS011;68368;51.728;5.248;2023-09-18T06:32:41;6.30;;;4.00;;
78891;SDS011;68368;51.728;5.248;2023-09-18T06:34:43;6.20;;;3.60;;
78891;SDS011;68368;51.728;5.248;2023-09-18T06:36:44;4.30;;;3.60;;
78891;SDS011;68368;51.728;5.248;2023-09-18T06:38:46;4.70;;;3.70;;
78891;SDS011;68368;51.728;5.248;2023-09-18T06:40:48;7.70;;;4.00;;
78891;SDS011;68368;51.728;5.248;2023-09-18T06:42:50;5.90;;;3.30;;
78891;SDS011;68368;51.728;5.248;2023-09-18T06:44:58;7.30;;;3.90;;
78891;SDS011;68368;51.728;5.248;2023-09-18T06:47:00;5.60;;;3.60;;
78891;SDS011;68368;51.728;5.248;2023-09-18T06:49:02;5.50;;;3.70;;
78891;SDS011;68368;51.728;5.248;2023-09-18T06:51:04;6.20;;;3.40;;
78891;SDS011;68368;51.728;5.248;2023-09-18T06:53:06;6.60;;;3.40;;
78891;SDS011;68368;51.728;5.248;2023-09-18T06:55:08;4.90;;;3.30;;
78891;SDS011;68368;51.728;5.248;2023-09-18T06:57:10;6.10;;;2.90;;
78891;SDS011;68368;51.728;5.248;2023-09-18T06:59:12;5.70;;;2.80;;
78891;SDS011;68368;51.728;5.248;2023-09-18T07:01:14;4.70;;;3.20;;
78891;SDS011;68368;51.728;5.248;2023-09-18T07:03:16;3.60;;;2.80;;
78891;SDS011;68368;51.728;5.248;2023-09-18T07:05:17;5.00;;;2.30;;
78891;SDS011;68368;51.728;5.248;2023-09-18T07:07:19;3.90;;;3.00;;
78891;SDS011;68368;51.728;5.248;2023-09-18T07:09:21;5.30;;;2.50;;
78891;SDS011;68368;51.728;5.248;2023-09-18T07:11:23;4.80;;;2.60;;
78891;SDS011;68368;51.728;5.248;2023-09-18T07:13:25;5.10;;;2.60;;
78891;SDS011;68368;51.728;5.248;2023-09-18T07:15:27;5.50;;;2.40;;
78891;SDS011;68368;51.728;5.248;2023-09-18T07:17:29;4.40;;;2.10;;
78891;SDS011;68368;51.728;5.248;2023-09-18T07:19:31;4.30;;;2.20;;
78891;SDS011;68368;51.728;5.248;2023-09-18T07:21:33;4.20;;;2.10;;
78891;SDS011;68368;51.728;5.248;2023-09-18T07:23:53;4.30;;;2.40;;
78891;SDS011;68368;51.728;5.248;2023-09-18T07:25:57;3.70;;;2.40;;
78891;SDS011;68368;51.728;5.248;2023-09-18T07:28:02;4.10;;;1.90;;
78891;SDS011;68368;51.728;5.248;2023-09-18T07:30:06;3.00;;;1.90;;
78891;SDS011;68368;51.728;5.248;2023-09-18T07:32:10;3.70;;;2.00;;
78891;SDS011;68368;51.728;5.248;2023-09-18T07:34:12;4.70;;;2.10;;
78891;SDS011;68368;51.728;5.248;2023-09-18T07:36:14;3.60;;;2.00;;
78891;SDS011;68368;51.728;5.248;2023-09-18T07:38:16;3.60;;;2.00;;
78891;SDS011;68368;51.728;5.248;2023-09-18T07:40:18;2.70;;;1.90;;
78891;SDS011;68368;51.728;5.248;2023-09-18T07:42:20;2.80;;;1.90;;
78891;SDS011;68368;51.728;5.248;2023-09-18T07:44:25;5.30;;;2.10;;
78891;SDS011;68368;51.728;5.248;2023-09-18T07:46:27;5.20;;;1.90;;
78891;SDS011;68368;51.728;5.248;2023-09-18T07:48:29;3.10;;;1.70;;
78891;SDS011;68368;51.728;5.248;2023-09-18T07:50:31;4.80;;;2.00;;
78891;SDS011;68368;51.728;5.248;2023-09-18T07:52:32;4.20;;;1.90;;
78891;SDS011;68368;51.728;5.248;2023-09-18T07:54:34;3.20;;;1.80;;
78891;SDS011;68368;51.728;5.248;2023-09-18T07:56:36;4.10;;;1.90;;
78891;SDS011;68368;51.728;5.248;2023-09-18T07:58:38;2.60;;;1.70;;
78891;SDS011;68368;51.728;5.248;2023-09-18T08:00:40;3.10;;;1.70;;
78891;SDS011;68368;51.728;5.248;2023-09-18T08:02:42;3.70;;;1.90;;
78891;SDS011;68368;51.728;5.248;2023-09-18T08:04:43;3.50;;;1.70;;
78891;SDS011;68368;51.728;5.248;2023-09-18T08:06:46;4.20;;;1.90;;
78891;SDS011;68368;51.728;5.248;2023-09-18T08:08:48;3.50;;;1.80;;
78891;SDS011;68368;51.728;5.248;2023-09-18T08:10:50;3.40;;;1.90;;
78891;SDS011;68368;51.728;5.248;2023-09-18T08:12:53;4.10;;;1.60;;
78891;SDS011;68368;51.728;5.248;2023-09-18T08:14:55;4.80;;;1.50;;
78891;SDS011;68368;51.728;5.248;2023-09-18T08:16:56;3.20;;;1.40;;
78891;SDS011;68368;51.728;5.248;2023-09-18T08:19:00;3.80;;;1.80;;
78891;SDS011;68368;51.728;5.248;2023-09-18T08:21:02;3.60;;;2.00;;
78891;SDS011;68368;51.728;5.248;2023-09-18T08:23:04;4.80;;;1.80;;
78891;SDS011;68368;51.728;5.248;2023-09-18T08:25:07;3.80;;;1.90;;
78891;SDS011;68368;51.728;5.248;2023-09-18T08:27:09;2.90;;;1.60;;
78891;SDS011;68368;51.728;5.248;2023-09-18T08:29:12;3.50;;;1.50;;
78891;SDS011;68368;51.728;5.248;2023-09-18T08:31:14;2.70;;;1.30;;
78891;SDS011;68368;51.728;5.248;2023-09-18T08:33:17;3.00;;;1.60;;
78891;SDS011;68368;51.728;5.248;2023-09-18T08:35:18;2.70;;;1.50;;
78891;SDS011;68368;51.728;5.248;2023-09-18T08:37:20;3.60;;;1.80;;
78891;SDS011;68368;51.728;5.248;2023-09-18T08:39:22;3.50;;;2.00;;
78891;SDS011;68368;51.728;5.248;2023-09-18T08:41:24;3.80;;;1.80;;
78891;SDS011;68368;51.728;5.248;2023-09-18T08:43:29;3.00;;;1.30;;
78891;SDS011;68368;51.728;5.248;2023-09-18T08:45:35;4.30;;;1.60;;
78891;SDS011;68368;51.728;5.248;2023-09-18T08:47:41;4.20;;;1.70;;
78891;SDS011;68368;51.728;5.248;2023-09-18T08:49:43;4.10;;;1.40;;
78891;SDS011;68368;51.728;5.248;2023-09-18T08:51:46;3.50;;;1.50;;
78891;SDS011;68368;51.728;5.248;2023-09-18T08:53:49;3.70;;;1.80;;
78891;SDS011;68368;51.728;5.248;2023-09-18T08:55:53;3.30;;;1.40;;
78891;SDS011;68368;51.728;5.248;2023-09-18T08:57:58;3.80;;;1.50;;
78891;SDS011;68368;51.728;5.248;2023-09-18T09:00:00;2.90;;;1.70;;
78891;SDS011;68368;51.728;5.248;2023-09-18T09:02:02;2.30;;;1.40;;
78891;SDS011;68368;51.728;5.248;2023-09-18T09:04:04;4.30;;;1.60;;
78891;SDS011;68368;51.728;5.248;2023-09-18T09:06:06;3.20;;;1.50;;
78891;SDS011;68368;51.728;5.248;2023-09-18T09:08:28;4.30;;;1.60;;
78891;SDS011;68368;51.728;5.248;2023-09-18T09:10:29;2.80;;;1.30;;
78891;SDS011;68368;51.728;5.248;2023-09-18T09:12:47;2.80;;;1.50;;
78891;SDS011;68368;51.728;5.248;2023-09-18T09:15:07;3.80;;;1.20;;
78891;SDS011;68368;51.728;5.248;2023-09-18T09:17:09;2.00;;;1.10;;
78891;SDS011;68368;51.728;5.248;2023-09-18T09:19:19;3.90;;;1.70;;
78891;SDS011;68368;51.728;5.248;2023-09-18T09:21:38;5.10;;;1.70;;
78891;SDS011;68368;51.728;5.248;2023-09-18T09:23:47;2.10;;;1.30;;
78891;SDS011;68368;51.728;5.248;2023-09-18T09:25:50;2.90;;;1.60;;
78891;SDS011;68368;51.728;5.248;2023-09-18T09:27:52;6.40;;;1.40;;
78891;SDS011;68368;51.728;5.248;2023-09-18T09:30:00;2.50;;;1.60;;
78891;SDS011;68368;51.728;5.248;2023-09-18T09:34:25;2.70;;;1.60;;
78891;SDS011;68368;51.728;5.248;2023-09-18T09:38:30;3.20;;;1.50;;
78891;SDS011;68368;51.728;5.248;2023-09-18T09:40:33;3.20;;;2.10;;
78891;SDS011;68368;51.728;5.248;2023-09-18T09:42:38;4.70;;;1.90;;
78891;SDS011;68368;51.728;5.248;2023-09-18T09:44:43;3.40;;;2.10;;
78891;SDS011;68368;51.728;5.248;2023-09-18T09:46:46;5.50;;;2.00;;
78891;SDS011;68368;51.728;5.248;2023-09-18T09:48:58;5.00;;;1.90;;
78891;SDS011;68368;51.728;5.248;2023-09-18T09:51:01;3.70;;;2.10;;
78891;SDS011;68368;51.728;5.248;2023-09-18T09:53:03;3.20;;;2.20;;
78891;SDS011;68368;51.728;5.248;2023-09-18T09:55:07;5.30;;;1.90;;
78891;SDS011;68368;51.728;5.248;2023-09-18T09:57:19;5.50;;;1.90;;
78891;SDS011;68368;51.728;5.248;2023-09-18T09:59:21;5.00;;;2.10;;
78891;SDS011;68368;51.728;5.248;2023-09-18T10:01:24;3.40;;;2.20;;
78891;SDS011;68368;51.728;5.248;2023-09-18T10:03:27;4.30;;;2.10;;
78891;SDS011;68368;51.728;5.248;2023-09-18T10:05:30;3.60;;;2.10;;
78891;SDS011;68368;51.728;5.248;2023-09-18T10:07:33;5.80;;;2.00;;
78891;SDS011;68368;51.728;5.248;2023-09-18T10:09:36;2.90;;;2.00;;
78891;SDS011;68368;51.728;5.248;2023-09-18T10:11:41;3.80;;;1.90;;
78891;SDS011;68368;51.728;5.248;2023-09-18T10:13:48;4.20;;;2.10;;
78891;SDS011;68368;51.728;5.248;2023-09-18T10:15:56;6.50;;;2.50;;
78891;SDS011;68368;51.728;5.248;2023-09-18T10:18:00;4.30;;;2.20;;
78891;SDS011;68368;51.728;5.248;2023-09-18T10:20:07;3.70;;;2.50;;
78891;SDS011;68368;51.728;5.248;2023-09-18T10:22:14;4.70;;;2.40;;
78891;SDS011;68368;51.728;5.248;2023-09-18T10:24:25;4.80;;;2.50;;
78891;SDS011;68368;51.728;5.248;2023-09-18T10:26:29;5.30;;;2.70;;
78891;SDS011;68368;51.728;5.248;2023-09-18T10:28:33;5.00;;;2.60;;
78891;SDS011;68368;51.728;5.248;2023-09-18T10:30:36;4.30;;;2.50;;
78891;SDS011;68368;51.728;5.248;2023-09-18T10:32:40;4.10;;;2.60;;
78891;SDS011;68368;51.728;5.248;2023-09-18T10:34:42;4.90;;;2.60;;
78891;SDS011;68368;51.728;5.248;2023-09-18T10:36:46;5.50;;;3.00;;
78891;SDS011;68368;51.728;5.248;2023-09-18T10:38:49;8.20;;;2.90;;
78891;SDS011;68368;51.728;5.248;2023-09-18T10:40:51;4.50;;;2.30;;
78891;SDS011;68368;51.728;5.248;2023-09-18T10:42:54;5.30;;;2.60;;
78891;SDS011;68368;51.728;5.248;2023-09-18T10:44:58;5.20;;;2.60;;
78891;SDS011;68368;51.728;5.248;2023-09-18T10:47:00;5.10;;;2.30;;
78891;SDS011;68368;51.728;5.248;2023-09-18T10:49:04;6.70;;;2.40;;
78891;SDS011;68368;51.728;5.248;2023-09-18T10:51:06;5.80;;;2.70;;
78891;SDS011;68368;51.728;5.248;2023-09-18T10:53:09;5.00;;;2.70;;
78891;SDS011;68368;51.728;5.248;2023-09-18T10:55:12;4.70;;;2.40;;
78891;SDS011;68368;51.728;5.248;2023-09-18T10:57:15;4.80;;;2.70;;
78891;SDS011;68368;51.728;5.248;2023-09-18T10:59:16;5.40;;;2.40;;
78891;SDS011;68368;51.728;5.248;2023-09-18T11:01:18;5.20;;;2.40;;
78891;SDS011;68368;51.728;5.248;2023-09-18T11:03:22;4.40;;;2.50;;
78891;SDS011;68368;51.728;5.248;2023-09-18T11:05:27;4.00;;;2.40;;
78891;SDS011;68368;51.728;5.248;2023-09-18T11:07:30;4.20;;;2.30;;
78891;SDS011;68368;51.728;5.248;2023-09-18T11:09:39;5.30;;;2.50;;
78891;SDS011;68368;51.728;5.248;2023-09-18T11:11:43;5.20;;;2.40;;
78891;SDS011;68368;51.728;5.248;2023-09-18T11:13:46;5.20;;;2.50;;
78891;SDS011;68368;51.728;5.248;2023-09-18T11:15:49;4.50;;;2.60;;
78891;SDS011;68368;51.728;5.248;2023-09-18T11:17:58;3.70;;;2.40;;
78891;SDS011;68368;51.728;5.248;2023-09-18T11:20:16;4.20;;;2.50;;
78891;SDS011;68368;51.728;5.248;2023-09-18T11:22:19;3.70;;;2.60;;
78891;SDS011;68368;51.728;5.248;2023-09-18T11:24:21;5.80;;;2.40;;
78891;SDS011;68368;51.728;5.248;2023-09-18T11:26:23;4.00;;;2.70;;
78891;SDS011;68368;51.728;5.248;2023-09-18T11:28:29;5.00;;;2.40;;
78891;SDS011;68368;51.728;5.248;2023-09-18T11:30:31;6.40;;;2.70;;
78891;SDS011;68368;51.728;5.248;2023-09-18T11:32:38;5.70;;;3.20;;
78891;SDS011;68368;51.728;5.248;2023-09-18T11:34:41;5.60;;;2.80;;
78891;SDS011;68368;51.728;5.248;2023-09-18T11:36:43;5.10;;;2.90;;
78891;SDS011;68368;51.728;5.248;2023-09-18T11:38:51;5.20;;;3.20;;
78891;SDS011;68368;51.728;5.248;2023-09-18T11:40:54;5.10;;;2.90;;
78891;SDS011;68368;51.728;5.248;2023-09-18T11:45:20;4.00;;;2.80;;
78891;SDS011;68368;51.728;5.248;2023-09-18T11:47:23;5.60;;;2.70;;
78891;SDS011;68368;51.728;5.248;2023-09-18T11:49:26;4.40;;;2.20;;
78891;SDS011;68368;51.728;5.248;2023-09-18T11:51:29;6.20;;;2.40;;
78891;SDS011;68368;51.728;5.248;2023-09-18T11:53:34;5.10;;;2.80;;
78891;SDS011;68368;51.728;5.248;2023-09-18T11:57:38;4.70;;;2.40;;
78891;SDS011;68368;51.728;5.248;2023-09-18T11:59:42;4.20;;;2.60;;
78891;SDS011;68368;51.728;5.248;2023-09-18T12:01:44;5.60;;;2.70;;
78891;SDS011;68368;51.728;5.248;2023-09-18T12:03:54;3.90;;;2.40;;
78891;SDS011;68368;51.728;5.248;2023-09-18T12:06:01;4.70;;;2.10;;
78891;SDS011;68368;51.728;5.248;2023-09-18T12:08:04;4.30;;;2.80;;
78891;SDS011;68368;51.728;5.248;2023-09-18T12:10:08;3.60;;;2.30;;
78891;SDS011;68368;51.728;5.248;2023-09-18T12:12:12;4.10;;;2.80;;
78891;SDS011;68368;51.728;5.248;2023-09-18T12:14:19;6.60;;;2.90;;
78891;SDS011;68368;51.728;5.248;2023-09-18T12:16:21;3.70;;;2.90;;
78891;SDS011;68368;51.728;5.248;2023-09-18T12:18:23;4.90;;;2.70;;
78891;SDS011;68368;51.728;5.248;2023-09-18T12:20:25;5.30;;;2.50;;
78891;SDS011;68368;51.728;5.248;2023-09-18T12:22:27;6.10;;;2.70;;
78891;SDS011;68368;51.728;5.248;2023-09-18T12:24:47;4.30;;;2.30;;